createdAt,value
2019-04-21T00:02:08.605Z,10.57
2019-04-21T00:04:51.561Z,11.47
2019-04-21T00:07:27.715Z,8.37
2019-04-21T00:09:58.259Z,11.10
2019-04-21T00:12:25.063Z,16.00
2019-04-21T00:14:51.276Z,18.60
2019-04-21T00:17:19.654Z,11.57
2019-04-21T00:19:49.727Z,10.50
2019-04-21T00:22:30.199Z,11.77
2019-04-21T00:27:34.090Z,10.47
2019-04-21T00:30:12.161Z,9.60
2019-04-21T00:32:31.773Z,9.33
2019-04-21T00:34:59.108Z,8.30
2019-04-21T00:37:41.325Z,8.27
2019-04-21T00:40:28.053Z,8.00
2019-04-21T00:42:38.550Z,8.57
2019-04-21T00:45:08.116Z,7.90
2019-04-21T00:47:49.852Z,7.90
2019-04-21T00:50:12.772Z,7.40
2019-04-21T00:52:58.090Z,6.80
2019-04-21T00:55:29.845Z,7.90
2019-04-21T01:00:22.171Z,8.73
2019-04-21T01:02:56.182Z,8.73
2019-04-21T01:05:23.968Z,9.20
2019-04-21T01:07:56.237Z,9.63
2019-04-21T01:10:16.125Z,10.87
2019-04-21T01:12:56.102Z,10.20
2019-04-21T01:15:31.164Z,10.27
2019-04-21T01:17:53.363Z,10.63
2019-04-21T01:20:16.156Z,10.60
2019-04-21T01:22:35.638Z,10.27
2019-04-21T01:25:14.540Z,10.50
2019-04-21T01:27:54.187Z,9.57
2019-04-21T01:30:30.628Z,8.97
2019-04-21T01:32:59.311Z,9.40
2019-04-21T01:35:30.092Z,9.40
2019-04-21T01:38:03.094Z,10.60
2019-04-21T01:40:34.915Z,10.87
2019-04-21T01:43:03.541Z,11.23
2019-04-21T01:45:32.903Z,11.57
2019-04-21T01:48:01.289Z,11.50
2019-04-21T01:50:36.441Z,11.30
2019-04-21T01:53:17.524Z,12.83
2019-04-21T01:55:48.170Z,10.70
2019-04-21T01:58:22.990Z,10.20
2019-04-21T02:00:59.456Z,9.40
2019-04-21T02:03:46.990Z,9.60
2019-04-21T02:06:14.896Z,9.67
2019-04-21T02:08:34.627Z,10.43
2019-04-21T02:11:12.534Z,10.33
2019-04-21T02:13:35.448Z,11.63
2019-04-21T02:16:06.839Z,11.93
2019-04-21T02:18:33.734Z,12.67
2019-04-21T02:20:53.915Z,12.63
2019-04-21T02:26:11.365Z,11.23
2019-04-21T02:28:50.038Z,11.10
2019-04-21T02:31:22.599Z,10.50
2019-04-21T02:33:56.315Z,12.03
2019-04-21T02:36:30.939Z,11.10
2019-04-21T02:39:02.343Z,11.17
2019-04-21T02:41:25.300Z,10.70
2019-04-21T02:44:08.667Z,9.13
2019-04-21T02:46:37.985Z,14.63
2019-04-21T02:48:56.172Z,19.40
2019-04-21T02:51:27.640Z,19.80
2019-04-21T02:56:27.832Z,24.13
2019-04-21T02:58:59.409Z,23.40
2019-04-21T03:01:43.759Z,20.37
2019-04-21T03:04:18.802Z,18.97
2019-04-21T03:07:07.075Z,17.37
2019-04-21T03:09:45.029Z,17.70
2019-04-21T03:12:05.382Z,19.83
2019-04-21T03:14:41.436Z,23.67
2019-04-21T03:16:55.643Z,39.63
2019-04-21T03:19:43.989Z,63.27
2019-04-21T03:22:07.206Z,47.60
2019-04-21T03:24:39.918Z,39.07
2019-04-21T03:34:56.788Z,25.10
2019-04-21T03:39:37.476Z,23.37
2019-04-21T03:42:18.839Z,22.33
2019-04-21T03:44:42.171Z,24.77
2019-04-21T03:47:06.957Z,20.70
2019-04-21T03:49:40.343Z,14.30
2019-04-21T03:52:15.199Z,14.30
2019-04-21T03:54:45.096Z,14.50
2019-04-21T03:59:36.155Z,13.87
2019-04-21T04:02:14.770Z,14.60
2019-04-21T04:10:07.766Z,13.40
2019-04-21T04:15:02.915Z,11.57
2019-04-21T04:20:04.041Z,11.13
2019-04-21T04:22:41.211Z,11.17
2019-04-21T04:25:07.768Z,11.47
2019-04-21T04:32:34.756Z,12.17
2019-04-21T04:35:21.622Z,12.27
2019-04-21T04:40:13.668Z,10.40
2019-04-21T04:45:28.332Z,9.60
2019-04-21T04:47:56.421Z,10.70
2019-04-21T04:52:48.927Z,17.07
2019-04-21T04:55:19.215Z,14.17
2019-04-21T05:00:28.711Z,19.53
2019-04-21T05:02:48.825Z,16.53
2019-04-21T05:07:57.581Z,17.80
2019-04-21T05:10:36.777Z,19.80
2019-04-21T05:12:51.234Z,15.80
2019-04-21T05:20:21.297Z,29.70
2019-04-21T05:22:47.295Z,17.07
2019-04-21T05:25:12.154Z,19.67
2019-04-21T05:27:42.970Z,13.43
2019-04-21T05:30:24.815Z,8.53
2019-04-21T05:32:59.946Z,8.73
2019-04-21T05:35:35.877Z,8.10
2019-04-21T05:38:10.442Z,10.07
2019-04-21T05:40:33.545Z,11.53
2019-04-21T05:43:10.870Z,13.30
2019-04-21T05:45:42.281Z,12.67
2019-04-21T05:50:39.947Z,12.93
2019-04-21T05:53:20.954Z,12.20
2019-04-21T05:55:50.230Z,10.87
2019-04-21T05:58:12.093Z,11.87
2019-04-21T06:03:34.005Z,7.23
2019-04-21T06:08:30.834Z,5.63
2019-04-21T06:11:00.182Z,14.47
2019-04-21T06:13:40.709Z,6.93
2019-04-21T06:16:03.989Z,6.20
2019-04-21T06:21:05.057Z,7.80
2019-04-21T06:23:36.621Z,7.87
2019-04-21T06:26:44.919Z,10.13
2019-04-21T06:28:41.465Z,7.67
2019-04-21T06:31:18.079Z,7.63
2019-04-21T06:33:42.199Z,6.90
2019-04-21T06:36:24.121Z,6.50
2019-04-21T06:39:07.074Z,6.90
2019-04-21T06:41:32.555Z,5.10
2019-04-21T06:46:35.543Z,4.80
2019-04-21T06:49:00.327Z,4.87
2019-04-21T06:54:03.605Z,4.87
2019-04-21T06:56:39.700Z,5.67
2019-04-21T06:59:01.293Z,5.70
2019-04-21T07:01:36.811Z,5.80
2019-04-21T07:06:40.433Z,5.87
2019-04-21T07:09:20.772Z,5.03
2019-04-21T07:11:33.441Z,5.40
2019-04-21T07:14:19.723Z,5.27
2019-04-21T07:16:42.891Z,6.07
2019-04-21T07:19:13.238Z,6.10
2019-04-21T07:21:34.218Z,6.43
2019-04-21T07:24:05.776Z,9.20
2019-04-21T07:26:36.899Z,6.23
2019-04-21T07:29:07.643Z,6.90
2019-04-21T07:31:45.329Z,6.73
2019-04-21T07:34:07.604Z,6.20
2019-04-21T07:36:49.009Z,6.23
2019-04-21T07:39:00.499Z,7.93
2019-04-21T07:41:35.060Z,5.70
2019-04-21T07:43:59.151Z,7.03
2019-04-21T07:46:30.040Z,7.00
2019-04-21T07:49:14.021Z,5.80
2019-04-21T07:51:55.152Z,5.67
2019-04-21T07:54:23.801Z,9.03
2019-04-21T07:56:34.861Z,5.97
2019-04-21T07:59:34.277Z,5.60
2019-04-21T08:01:54.987Z,6.27
2019-04-21T08:06:51.678Z,4.77
2019-04-21T08:09:27.636Z,5.50
2019-04-21T08:11:51.742Z,5.17
2019-04-21T08:14:31.767Z,4.50
2019-04-21T08:16:57.654Z,4.97
2019-04-21T08:19:27.740Z,5.13
2019-04-21T08:22:05.463Z,4.63
2019-04-21T08:24:27.499Z,4.53
2019-04-21T08:27:04.986Z,4.13
2019-04-21T08:29:33.195Z,6.07
2019-04-21T08:34:34.861Z,4.63
2019-04-21T08:36:57.267Z,3.77
2019-04-21T08:39:45.513Z,6.27
2019-04-21T08:42:04.452Z,9.57
2019-04-21T08:44:40.488Z,5.00
2019-04-21T08:47:07.902Z,3.70
2019-04-21T08:49:34.893Z,5.50
2019-04-21T08:52:15.253Z,4.20
2019-04-21T08:54:33.750Z,4.70
2019-04-21T08:57:08.099Z,14.07
2019-04-21T09:00:01.609Z,18.17
2019-04-21T09:05:04.762Z,3.17
2019-04-21T09:07:41.692Z,5.93
2019-04-21T09:10:03.195Z,8.47
2019-04-21T09:12:34.659Z,4.30
2019-04-21T09:15:09.909Z,21.93
2019-04-21T09:17:34.401Z,4.17
2019-04-21T09:20:17.289Z,4.13
2019-04-21T09:22:41.528Z,4.43
2019-04-21T09:25:17.956Z,9.40
2019-04-21T09:27:39.413Z,3.50
2019-04-21T09:29:57.697Z,3.90
2019-04-21T09:32:26.768Z,5.93
2019-04-21T09:34:53.417Z,14.57
2019-04-21T09:37:32.978Z,3.10
2019-04-21T09:39:55.942Z,3.57
2019-04-21T09:42:32.288Z,19.53
2019-04-21T09:44:58.058Z,4.17
2019-04-21T09:47:33.622Z,3.30
2019-04-21T09:49:54.712Z,8.90
2019-04-21T09:52:27.879Z,5.93
2019-04-21T09:55:03.946Z,4.20
2019-04-21T09:57:35.010Z,3.60
2019-04-21T10:00:02.166Z,3.40
2019-04-21T10:02:34.231Z,3.60
2019-04-21T10:04:57.231Z,3.40
2019-04-21T10:07:31.832Z,3.73
2019-04-21T10:09:56.523Z,3.43
2019-04-21T10:12:25.662Z,3.90
2019-04-21T10:14:55.327Z,3.20
2019-04-21T10:17:29.607Z,3.17
2019-04-21T10:19:58.749Z,3.17
2019-04-21T10:22:28.847Z,3.90
2019-04-21T10:24:58.524Z,2.83
2019-04-21T10:27:27.539Z,3.10
2019-04-21T10:29:56.347Z,3.33
2019-04-21T10:32:25.473Z,3.20
2019-04-21T10:34:55.141Z,3.17
2019-04-21T10:37:36.320Z,2.77
2019-04-21T10:39:55.709Z,3.13
2019-04-21T10:42:24.602Z,2.67
2019-04-21T10:44:54.736Z,3.20
2019-04-21T10:47:24.795Z,3.20
2019-04-21T10:49:54.879Z,3.03
2019-04-21T10:52:42.737Z,2.90
2019-04-21T10:55:32.092Z,2.93
2019-04-21T10:57:44.365Z,3.30
2019-04-21T11:00:14.345Z,3.43
2019-04-21T11:02:46.495Z,3.23
2019-04-21T11:05:16.472Z,3.20
2019-04-21T11:08:07.759Z,3.30
2019-04-21T11:10:22.438Z,3.17
2019-04-21T11:12:52.526Z,3.40
2019-04-21T11:15:21.573Z,3.40
2019-04-21T11:17:50.681Z,3.07
2019-04-21T11:20:19.535Z,3.30
2019-04-21T11:22:49.319Z,3.40
2019-04-21T11:25:18.236Z,3.30
2019-04-21T11:27:47.151Z,3.20
2019-04-21T11:30:16.049Z,3.57
2019-04-21T11:32:47.561Z,3.30
2019-04-21T11:35:15.528Z,3.40
2019-04-21T11:37:44.493Z,3.30
2019-04-21T11:40:17.640Z,2.90
2019-04-21T11:42:45.968Z,3.50
2019-04-21T11:45:37.508Z,3.17
2019-04-21T11:48:10.388Z,2.77
2019-04-21T11:50:39.295Z,2.80
2019-04-21T11:53:08.389Z,2.93
2019-04-21T11:55:41.069Z,3.13
2019-04-21T11:58:07.816Z,3.50
2019-04-21T12:00:37.740Z,3.43
2019-04-21T12:03:09.216Z,3.50
2019-04-21T12:05:39.424Z,3.27
2019-04-21T12:08:21.232Z,3.40
2019-04-21T12:10:39.717Z,3.13
2019-04-21T12:13:09.950Z,3.13
2019-04-21T12:15:39.135Z,3.07
2019-04-21T12:18:08.167Z,3.30
2019-04-21T12:20:37.627Z,3.03
2019-04-21T12:23:08.730Z,3.20
2019-04-21T12:25:49.436Z,5.10
2019-04-21T12:28:19.749Z,3.23
2019-04-21T12:30:51.592Z,2.90
2019-04-21T12:33:22.386Z,3.67
2019-04-21T12:35:51.571Z,3.27
2019-04-21T12:38:33.350Z,2.80
2019-04-21T12:40:50.900Z,3.20
2019-04-21T12:43:20.988Z,3.20
2019-04-21T12:45:49.776Z,3.13
2019-04-21T12:48:20.022Z,2.97
2019-04-21T12:50:49.958Z,3.37
2019-04-21T12:53:19.357Z,3.17
2019-04-21T12:55:49.818Z,2.60
2019-04-21T12:58:19.373Z,3.27
2019-04-21T13:00:49.592Z,2.70
2019-04-21T13:03:21.631Z,2.83
2019-04-21T13:05:51.719Z,3.10
2019-04-21T13:08:47.818Z,2.90
2019-04-21T13:11:09.491Z,3.03
2019-04-21T13:13:39.592Z,2.53
2019-04-21T13:16:09.617Z,3.10
2019-04-21T13:18:39.573Z,3.03
2019-04-21T13:21:08.352Z,3.33
2019-04-21T13:23:37.097Z,3.13
2019-04-21T13:26:08.278Z,3.17
2019-04-21T13:28:37.856Z,3.07
2019-04-21T13:31:06.621Z,3.47
2019-04-21T13:33:35.620Z,3.00
2019-04-21T13:36:05.047Z,3.70
2019-04-21T13:38:40.732Z,3.20
2019-04-21T13:41:24.721Z,3.50
2019-04-21T13:43:41.369Z,3.03
2019-04-21T13:46:10.272Z,3.43
2019-04-21T13:48:40.335Z,3.07
2019-04-21T13:51:09.245Z,3.50
2019-04-21T13:53:38.002Z,3.17
2019-04-21T13:56:07.039Z,3.60
2019-04-21T13:58:38.007Z,3.80
2019-04-21T14:01:07.687Z,3.40
2019-04-21T14:03:37.681Z,3.27
2019-04-21T14:06:06.834Z,3.53
2019-04-21T14:08:36.955Z,2.87
2019-04-21T14:11:07.126Z,3.17
2019-04-21T14:13:36.426Z,3.20
2019-04-21T14:16:06.242Z,3.33
2019-04-21T14:18:36.487Z,2.83
2019-04-21T14:21:05.386Z,2.83
2019-04-21T14:23:40.557Z,2.90
2019-04-21T14:26:04.732Z,3.07
2019-04-21T14:28:33.703Z,2.90
2019-04-21T14:31:02.495Z,2.90
2019-04-21T14:33:32.070Z,3.30
2019-04-21T14:36:01.036Z,3.30
2019-04-21T14:38:29.771Z,3.20
2019-04-21T14:40:59.885Z,4.10
2019-04-21T14:43:29.962Z,3.33
2019-04-21T14:46:00.966Z,3.30
2019-04-21T14:48:43.553Z,2.90
2019-04-21T14:51:26.829Z,2.80
2019-04-21T14:53:57.529Z,3.67
2019-04-21T14:56:27.108Z,3.23
2019-04-21T14:58:58.701Z,2.93
2019-04-21T15:01:26.449Z,3.20
2019-04-21T15:03:55.473Z,2.90
2019-04-21T15:06:25.507Z,2.73
2019-04-21T15:08:55.577Z,3.37
2019-04-21T15:11:24.308Z,3.00
2019-04-21T15:13:53.637Z,3.00
2019-04-21T15:16:22.903Z,3.13
2019-04-21T15:18:52.801Z,3.07
2019-04-21T15:21:21.720Z,3.17
2019-04-21T15:23:50.785Z,2.70
2019-04-21T15:26:20.098Z,3.20
2019-04-21T15:28:49.012Z,3.17
2019-04-21T15:31:23.808Z,2.87
2019-04-21T15:33:49.552Z,2.53
2019-04-21T15:36:18.742Z,2.77
2019-04-21T15:38:47.937Z,3.07
2019-04-21T15:41:16.867Z,3.00
2019-04-21T15:43:46.748Z,4.00
2019-04-21T15:46:16.452Z,5.53
2019-04-21T15:48:45.171Z,3.23
2019-04-21T15:51:13.950Z,2.90
2019-04-21T15:53:45.706Z,3.07
2019-04-21T15:56:17.331Z,8.50
2019-04-21T15:59:00.994Z,13.20
2019-04-21T16:01:32.453Z,3.50
2019-04-21T16:04:02.816Z,2.70
2019-04-21T16:06:32.635Z,3.10
2019-04-21T16:09:03.270Z,3.03
2019-04-21T16:11:31.803Z,3.33
2019-04-21T16:14:01.845Z,3.40
2019-04-21T16:16:32.339Z,3.40
2019-04-21T16:19:01.234Z,3.30
2019-04-21T16:21:31.636Z,3.00
2019-04-21T16:24:00.598Z,3.13
2019-04-21T16:26:30.600Z,3.30
2019-04-21T16:28:59.656Z,3.80
2019-04-21T16:31:28.376Z,3.37
2019-04-21T16:33:57.110Z,3.87
2019-04-21T16:36:25.869Z,3.63
2019-04-21T16:38:55.597Z,3.73
2019-04-21T16:41:24.493Z,3.47
2019-04-21T16:43:53.529Z,3.60
2019-04-21T16:46:23.288Z,3.50
2019-04-21T16:48:53.473Z,4.13
2019-04-21T16:51:22.495Z,3.53
2019-04-21T16:53:52.788Z,3.37
2019-04-21T16:56:23.080Z,3.50
2019-04-21T16:58:54.692Z,3.67
2019-04-21T17:01:31.736Z,3.30
2019-04-21T17:04:02.241Z,3.83
2019-04-21T17:06:31.270Z,3.90
2019-04-21T17:09:00.953Z,3.90
2019-04-21T17:11:33.690Z,4.53
2019-04-21T17:14:01.176Z,4.10
2019-04-21T17:16:55.142Z,4.20
2019-04-21T17:19:12.796Z,4.37
2019-04-21T17:21:32.078Z,4.10
2019-04-21T17:24:02.117Z,4.50
2019-04-21T17:26:33.985Z,4.10
2019-04-21T17:29:02.642Z,4.27
2019-04-21T17:31:31.496Z,4.43
2019-04-21T17:34:09.613Z,4.20
2019-04-21T17:36:33.075Z,4.07
2019-04-21T17:39:02.270Z,4.17
2019-04-21T17:41:39.992Z,4.53
2019-04-21T17:44:04.341Z,4.77
2019-04-21T17:46:43.664Z,5.03
2019-04-21T17:49:05.151Z,5.60
2019-04-21T17:51:55.120Z,4.53
2019-04-21T17:54:35.674Z,4.87
2019-04-21T17:57:23.266Z,8.73
2019-04-21T18:00:11.159Z,5.80
2019-04-21T18:02:28.210Z,4.40
2019-04-21T18:04:57.715Z,4.63
2019-04-21T18:07:27.271Z,6.67
2019-04-21T18:10:00.090Z,4.27
2019-04-21T18:12:29.205Z,4.77
2019-04-21T18:14:52.966Z,5.20
2019-04-21T18:17:14.602Z,5.33
2019-04-21T18:19:47.089Z,5.93
2019-04-21T18:22:38.611Z,6.37
2019-04-21T18:25:13.742Z,8.30
2019-04-21T18:27:38.777Z,8.07
2019-04-21T18:30:44.590Z,8.20
2019-04-21T18:33:23.451Z,7.37
2019-04-21T18:36:02.929Z,6.57
2019-04-21T18:39:10.400Z,7.33
2019-04-21T18:41:30.354Z,6.47
2019-04-21T18:44:28.435Z,9.17
2019-04-21T18:47:03.696Z,8.63
2019-04-21T18:49:26.992Z,115.87
2019-04-21T18:52:21.747Z,21.87
2019-04-21T18:54:54.843Z,13.63
2019-04-21T18:57:22.829Z,12.77
2019-04-21T18:59:45.167Z,16.73
2019-04-21T19:02:16.471Z,13.63
2019-04-21T19:04:44.959Z,15.00
2019-04-21T19:07:27.283Z,15.67
2019-04-21T19:12:58.148Z,24.13
2019-04-21T19:14:57.983Z,17.53
2019-04-21T19:22:38.805Z,15.27
2019-04-21T19:25:08.432Z,13.20
2019-04-21T19:27:36.543Z,11.03
2019-04-21T19:30:13.521Z,10.33
2019-04-21T19:32:37.572Z,9.27
2019-04-21T19:34:54.876Z,10.37
2019-04-21T19:37:25.961Z,10.03
2019-04-21T19:40:06.761Z,10.13
2019-04-21T19:42:32.181Z,8.90
2019-04-21T19:45:11.351Z,8.83
2019-04-21T19:47:44.973Z,10.17
2019-04-21T19:50:12.084Z,9.87
2019-04-21T19:52:36.596Z,7.87
2019-04-21T19:54:56.728Z,9.50
2019-04-21T19:57:25.248Z,7.43
2019-04-21T19:59:58.535Z,9.63
2019-04-21T20:02:24.838Z,7.23
2019-04-21T20:05:01.481Z,7.20
2019-04-21T20:07:41.889Z,6.83
2019-04-21T20:10:14.266Z,7.93
2019-04-21T20:13:02.916Z,15.47
2019-04-21T20:15:23.300Z,23.20
2019-04-21T20:17:42.457Z,22.93
2019-04-21T20:19:58.257Z,13.50
2019-04-21T20:22:32.683Z,10.87
2019-04-21T20:25:04.746Z,8.87
2019-04-21T20:27:39.043Z,7.60
2019-04-21T20:30:13.757Z,6.37
2019-04-21T20:32:54.998Z,5.30
2019-04-21T20:35:25.004Z,5.17
2019-04-21T20:37:47.952Z,5.87
2019-04-21T20:40:05.171Z,5.47
2019-04-21T20:42:42.501Z,6.00
2019-04-21T20:47:40.514Z,5.90
2019-04-21T20:50:16.383Z,6.60
2019-04-21T20:52:56.892Z,5.97
2019-04-21T20:55:19.348Z,5.90
2019-04-21T20:57:48.999Z,6.30
2019-04-21T21:00:27.154Z,5.60
2019-04-21T21:03:06.997Z,5.43
2019-04-21T21:05:22.078Z,5.97
2019-04-21T21:08:01.222Z,5.97
2019-04-21T21:10:26.387Z,6.87
2019-04-21T21:13:06.273Z,8.13
2019-04-21T21:15:26.116Z,9.27
2019-04-21T21:18:06.262Z,9.13
2019-04-21T21:20:33.568Z,10.07
2019-04-21T21:22:56.167Z,13.90
2019-04-21T21:25:41.728Z,11.33
2019-04-21T21:27:55.161Z,9.60
2019-04-21T21:30:26.920Z,6.63
2019-04-21T21:33:04.581Z,9.47
2019-04-21T21:35:31.108Z,8.83
2019-04-21T21:38:08.359Z,6.57
2019-04-21T21:40:31.663Z,11.53
2019-04-21T21:42:49.375Z,19.30
2019-04-21T21:45:22.197Z,18.00
2019-04-21T21:48:05.658Z,17.93
2019-04-21T21:50:29.493Z,14.37
2019-04-21T21:53:00.760Z,11.17
2019-04-21T21:55:23.727Z,11.27
2019-04-21T21:57:58.113Z,8.70
2019-04-21T22:00:27.901Z,9.50
2019-04-21T22:03:03.537Z,12.03
2019-04-21T22:05:33.133Z,17.93
2019-04-21T22:08:00.452Z,31.63
2019-04-21T22:10:29.555Z,67.83
2019-04-21T22:13:06.796Z,51.50
2019-04-21T22:15:32.808Z,82.93
2019-04-21T22:18:19.336Z,52.43
2019-04-21T22:20:52.280Z,35.07
2019-04-21T22:23:08.760Z,79.63
2019-04-21T22:25:36.835Z,15.57
2019-04-21T22:28:02.152Z,13.47
2019-04-21T22:30:38.177Z,29.73
2019-04-21T22:33:06.964Z,30.27
2019-04-21T22:35:42.034Z,29.60
2019-04-21T22:38:20.822Z,24.30
2019-04-21T22:40:47.845Z,15.37
2019-04-21T22:43:11.715Z,14.00
2019-04-21T22:45:35.568Z,12.50
2019-04-21T22:48:13.465Z,7.40
2019-04-21T22:50:38.377Z,7.23
2019-04-21T22:53:09.662Z,6.37
2019-04-21T22:55:38.894Z,6.07
2019-04-21T22:58:09.438Z,7.40
2019-04-21T23:00:44.452Z,6.33
2019-04-21T23:03:13.827Z,6.30
2019-04-21T23:05:42.749Z,6.63
2019-04-21T23:08:11.043Z,7.13
2019-04-21T23:10:41.422Z,7.67
2019-04-21T23:13:17.787Z,6.83
2019-04-21T23:15:47.078Z,7.77
2019-04-21T23:18:25.991Z,7.40
2019-04-21T23:21:00.415Z,7.77
2019-04-21T23:23:37.028Z,8.00
2019-04-21T23:26:01.174Z,10.60
2019-04-21T23:28:39.153Z,9.87
2019-04-21T23:31:06.301Z,10.90
2019-04-21T23:33:17.980Z,10.80
2019-04-21T23:35:48.834Z,11.40
2019-04-21T23:38:16.493Z,10.83
2019-04-21T23:40:52.971Z,9.73
2019-04-21T23:43:21.371Z,10.20
2019-04-21T23:45:48.743Z,10.47
2019-04-21T23:48:32.491Z,9.97
2019-04-21T23:50:56.803Z,9.90
2019-04-21T23:53:19.874Z,9.30
2019-04-21T23:55:49.512Z,9.83
2019-04-21T23:58:25.064Z,9.20
